sensor_id;sensor_type;location;lat;lon;timestamp;P1;durP1;ratioP1;P2;durP2;ratioP2
34695;SDS011;20918;51.138;17.370;2023-02-03T00:02:27;16.90;;;8.30;;
34695;SDS011;20918;51.138;17.370;2023-02-03T00:05:28;19.50;;;9.30;;
34695;SDS011;20918;51.138;17.370;2023-02-03T00:08:33;14.40;;;7.90;;
34695;SDS011;20918;51.138;17.370;2023-02-03T00:11:36;18.30;;;8.60;;
34695;SDS011;20918;51.138;17.370;2023-02-03T00:14:36;14.80;;;7.30;;
34695;SDS011;20918;51.138;17.370;2023-02-03T00:17:37;17.30;;;8.20;;
34695;SDS011;20918;51.138;17.370;2023-02-03T00:20:38;12.70;;;6.60;;
34695;SDS011;20918;51.138;17.370;2023-02-03T00:23:39;13.30;;;6.80;;
34695;SDS011;20918;51.138;17.370;2023-02-03T00:26:45;11.50;;;6.70;;
34695;SDS011;20918;51.138;17.370;2023-02-03T00:29:46;14.40;;;8.00;;
34695;SDS011;20918;51.138;17.370;2023-02-03T00:32:49;19.20;;;7.50;;
34695;SDS011;20918;51.138;17.370;2023-02-03T00:35:49;16.90;;;7.80;;
34695;SDS011;20918;51.138;17.370;2023-02-03T00:38:50;14.90;;;7.30;;
34695;SDS011;20918;51.138;17.370;2023-02-03T00:41:51;16.10;;;8.30;;
34695;SDS011;20918;51.138;17.370;2023-02-03T00:44:51;15.10;;;7.80;;
34695;SDS011;20918;51.138;17.370;2023-02-03T00:47:52;19.40;;;8.60;;
34695;SDS011;20918;51.138;17.370;2023-02-03T00:50:53;18.60;;;8.60;;
34695;SDS011;20918;51.138;17.370;2023-02-03T00:53:53;16.70;;;8.00;;
34695;SDS011;20918;51.138;17.370;2023-02-03T00:56:56;18.50;;;7.70;;
34695;SDS011;20918;51.138;17.370;2023-02-03T00:59:57;15.90;;;8.30;;
34695;SDS011;20918;51.138;17.370;2023-02-03T01:02:57;31.80;;;9.10;;
34695;SDS011;20918;51.138;17.370;2023-02-03T01:09:31;19.70;;;8.30;;
34695;SDS011;20918;51.138;17.370;2023-02-03T01:12:33;14.90;;;7.40;;
34695;SDS011;20918;51.138;17.370;2023-02-03T01:15:34;14.80;;;8.10;;
34695;SDS011;20918;51.138;17.370;2023-02-03T01:18:35;16.20;;;9.20;;
34695;SDS011;20918;51.138;17.370;2023-02-03T01:21:37;22.00;;;10.70;;
34695;SDS011;20918;51.138;17.370;2023-02-03T01:24:37;15.50;;;8.40;;
34695;SDS011;20918;51.138;17.370;2023-02-03T01:27:38;17.70;;;8.40;;
34695;SDS011;20918;51.138;17.370;2023-02-03T01:30:39;20.50;;;9.60;;
34695;SDS011;20918;51.138;17.370;2023-02-03T01:33:39;20.70;;;9.60;;
34695;SDS011;20918;51.138;17.370;2023-02-03T01:36:44;21.20;;;10.30;;
34695;SDS011;20918;51.138;17.370;2023-02-03T01:39:45;21.70;;;11.60;;
34695;SDS011;20918;51.138;17.370;2023-02-03T01:42:49;20.20;;;10.30;;
34695;SDS011;20918;51.138;17.370;2023-02-03T01:45:50;18.00;;;9.40;;
34695;SDS011;20918;51.138;17.370;2023-02-03T01:51:53;21.30;;;10.10;;
34695;SDS011;20918;51.138;17.370;2023-02-03T01:54:54;21.00;;;10.10;;
34695;SDS011;20918;51.138;17.370;2023-02-03T01:58:01;21.00;;;11.10;;
34695;SDS011;20918;51.138;17.370;2023-02-03T02:01:08;19.50;;;9.80;;
34695;SDS011;20918;51.138;17.370;2023-02-03T02:04:09;18.20;;;10.20;;
34695;SDS011;20918;51.138;17.370;2023-02-03T02:07:10;21.30;;;10.10;;
34695;SDS011;20918;51.138;17.370;2023-02-03T02:10:14;19.80;;;10.40;;
34695;SDS011;20918;51.138;17.370;2023-02-03T02:13:15;20.60;;;9.70;;
34695;SDS011;20918;51.138;17.370;2023-02-03T02:26:42;18.80;;;9.60;;
34695;SDS011;20918;51.138;17.370;2023-02-03T02:30:05;15.40;;;9.20;;
34695;SDS011;20918;51.138;17.370;2023-02-03T02:36:41;19.00;;;8.30;;
34695;SDS011;20918;51.138;17.370;2023-02-03T02:46:13;22.50;;;11.40;;
34695;SDS011;20918;51.138;17.370;2023-02-03T02:52:29;23.50;;;10.80;;
34695;SDS011;20918;51.138;17.370;2023-02-03T02:55:34;24.90;;;11.70;;
34695;SDS011;20918;51.138;17.370;2023-02-03T02:58:40;23.10;;;11.50;;
34695;SDS011;20918;51.138;17.370;2023-02-03T03:01:43;25.70;;;11.80;;
34695;SDS011;20918;51.138;17.370;2023-02-03T03:04:45;22.90;;;10.80;;
34695;SDS011;20918;51.138;17.370;2023-02-03T03:07:54;22.30;;;10.20;;
34695;SDS011;20918;51.138;17.370;2023-02-03T03:11:02;21.70;;;10.60;;
34695;SDS011;20918;51.138;17.370;2023-02-03T03:14:05;23.40;;;11.70;;
34695;SDS011;20918;51.138;17.370;2023-02-03T03:17:08;25.80;;;12.10;;
34695;SDS011;20918;51.138;17.370;2023-02-03T03:20:12;26.30;;;12.70;;
34695;SDS011;20918;51.138;17.370;2023-02-03T03:23:21;20.50;;;11.10;;
34695;SDS011;20918;51.138;17.370;2023-02-03T03:26:31;26.10;;;11.40;;
34695;SDS011;20918;51.138;17.370;2023-02-03T03:32:57;21.40;;;11.00;;
34695;SDS011;20918;51.138;17.370;2023-02-03T03:36:00;23.30;;;10.30;;
34695;SDS011;20918;51.138;17.370;2023-02-03T03:39:10;24.60;;;11.10;;
34695;SDS011;20918;51.138;17.370;2023-02-03T03:48:50;19.50;;;9.90;;
34695;SDS011;20918;51.138;17.370;2023-02-03T03:51:57;20.10;;;9.20;;
34695;SDS011;20918;51.138;17.370;2023-02-03T03:55:03;21.20;;;9.30;;
34695;SDS011;20918;51.138;17.370;2023-02-03T03:58:09;21.00;;;9.50;;
34695;SDS011;20918;51.138;17.370;2023-02-03T04:01:13;17.40;;;8.90;;
34695;SDS011;20918;51.138;17.370;2023-02-03T04:04:16;16.30;;;9.30;;
34695;SDS011;20918;51.138;17.370;2023-02-03T04:07:18;19.30;;;9.30;;
34695;SDS011;20918;51.138;17.370;2023-02-03T04:10:29;24.70;;;10.70;;
34695;SDS011;20918;51.138;17.370;2023-02-03T04:13:32;21.40;;;9.40;;
34695;SDS011;20918;51.138;17.370;2023-02-03T04:16:32;22.00;;;9.40;;
34695;SDS011;20918;51.138;17.370;2023-02-03T04:19:33;18.80;;;8.80;;
34695;SDS011;20918;51.138;17.370;2023-02-03T04:22:34;19.00;;;8.00;;
34695;SDS011;20918;51.138;17.370;2023-02-03T04:25:34;15.40;;;8.50;;
34695;SDS011;20918;51.138;17.370;2023-02-03T04:31:36;15.00;;;7.40;;
34695;SDS011;20918;51.138;17.370;2023-02-03T04:34:37;16.10;;;7.00;;
34695;SDS011;20918;51.138;17.370;2023-02-03T04:37:38;15.90;;;7.50;;
34695;SDS011;20918;51.138;17.370;2023-02-03T04:40:41;14.30;;;7.20;;
34695;SDS011;20918;51.138;17.370;2023-02-03T04:43:44;14.60;;;7.20;;
34695;SDS011;20918;51.138;17.370;2023-02-03T04:46:45;16.20;;;7.30;;
34695;SDS011;20918;51.138;17.370;2023-02-03T04:49:46;19.70;;;7.40;;
34695;SDS011;20918;51.138;17.370;2023-02-03T04:52:47;13.90;;;7.00;;
34695;SDS011;20918;51.138;17.370;2023-02-03T04:55:47;11.60;;;6.80;;
34695;SDS011;20918;51.138;17.370;2023-02-03T04:58:48;14.10;;;6.00;;
34695;SDS011;20918;51.138;17.370;2023-02-03T05:01:49;15.40;;;6.40;;
34695;SDS011;20918;51.138;17.370;2023-02-03T05:04:49;19.10;;;7.50;;
34695;SDS011;20918;51.138;17.370;2023-02-03T05:07:50;13.00;;;6.30;;
34695;SDS011;20918;51.138;17.370;2023-02-03T05:10:50;17.30;;;6.80;;
34695;SDS011;20918;51.138;17.370;2023-02-03T05:13:52;13.80;;;6.40;;
34695;SDS011;20918;51.138;17.370;2023-02-03T05:16:53;11.30;;;5.10;;
34695;SDS011;20918;51.138;17.370;2023-02-03T05:19:54;14.90;;;5.10;;
34695;SDS011;20918;51.138;17.370;2023-02-03T05:22:57;16.50;;;6.10;;
34695;SDS011;20918;51.138;17.370;2023-02-03T05:28:59;11.30;;;4.60;;
34695;SDS011;20918;51.138;17.370;2023-02-03T05:32:00;14.00;;;6.00;;
34695;SDS011;20918;51.138;17.370;2023-02-03T05:35:01;12.30;;;5.60;;
34695;SDS011;20918;51.138;17.370;2023-02-03T05:38:02;10.90;;;5.30;;
34695;SDS011;20918;51.138;17.370;2023-02-03T05:41:03;14.90;;;5.20;;
34695;SDS011;20918;51.138;17.370;2023-02-03T05:44:23;12.70;;;5.10;;
34695;SDS011;20918;51.138;17.370;2023-02-03T05:47:25;12.60;;;5.40;;
34695;SDS011;20918;51.138;17.370;2023-02-03T05:50:26;14.80;;;5.70;;
34695;SDS011;20918;51.138;17.370;2023-02-03T05:53:40;10.70;;;4.90;;
34695;SDS011;20918;51.138;17.370;2023-02-03T05:56:41;10.00;;;4.40;;
34695;SDS011;20918;51.138;17.370;2023-02-03T05:59:45;9.60;;;5.60;;
34695;SDS011;20918;51.138;17.370;2023-02-03T06:02:50;9.70;;;4.90;;
34695;SDS011;20918;51.138;17.370;2023-02-03T06:05:52;13.00;;;5.20;;
34695;SDS011;20918;51.138;17.370;2023-02-03T06:08:52;10.20;;;4.70;;
34695;SDS011;20918;51.138;17.370;2023-02-03T06:11:56;9.80;;;5.50;;
34695;SDS011;20918;51.138;17.370;2023-02-03T06:14:57;14.30;;;5.30;;
34695;SDS011;20918;51.138;17.370;2023-02-03T06:17:57;9.80;;;5.20;;
34695;SDS011;20918;51.138;17.370;2023-02-03T06:20:58;11.80;;;4.90;;
34695;SDS011;20918;51.138;17.370;2023-02-03T06:23:58;16.30;;;6.10;;
34695;SDS011;20918;51.138;17.370;2023-02-03T06:27:02;9.60;;;5.20;;
34695;SDS011;20918;51.138;17.370;2023-02-03T06:30:06;10.20;;;5.40;;
34695;SDS011;20918;51.138;17.370;2023-02-03T06:33:07;15.60;;;5.90;;
34695;SDS011;20918;51.138;17.370;2023-02-03T06:36:08;18.80;;;8.00;;
34695;SDS011;20918;51.138;17.370;2023-02-03T06:39:10;13.10;;;8.60;;
34695;SDS011;20918;51.138;17.370;2023-02-03T06:42:11;14.10;;;6.80;;
34695;SDS011;20918;51.138;17.370;2023-02-03T06:45:11;17.10;;;9.90;;
34695;SDS011;20918;51.138;17.370;2023-02-03T06:48:13;21.50;;;9.60;;
34695;SDS011;20918;51.138;17.370;2023-02-03T06:51:13;17.30;;;8.40;;
34695;SDS011;20918;51.138;17.370;2023-02-03T06:57:15;16.60;;;8.10;;
34695;SDS011;20918;51.138;17.370;2023-02-03T07:00:16;13.90;;;7.90;;
34695;SDS011;20918;51.138;17.370;2023-02-03T07:03:18;18.50;;;7.60;;
34695;SDS011;20918;51.138;17.370;2023-02-03T07:06:21;14.90;;;7.60;;
34695;SDS011;20918;51.138;17.370;2023-02-03T07:09:23;16.70;;;7.70;;
34695;SDS011;20918;51.138;17.370;2023-02-03T07:12:24;18.90;;;8.30;;
34695;SDS011;20918;51.138;17.370;2023-02-03T07:15:25;19.50;;;9.10;;
34695;SDS011;20918;51.138;17.370;2023-02-03T07:18:25;13.50;;;8.40;;
34695;SDS011;20918;51.138;17.370;2023-02-03T07:21:26;17.50;;;9.20;;
34695;SDS011;20918;51.138;17.370;2023-02-03T07:24:26;17.40;;;9.40;;
34695;SDS011;20918;51.138;17.370;2023-02-03T07:27:27;18.00;;;9.30;;
34695;SDS011;20918;51.138;17.370;2023-02-03T07:30:28;17.70;;;8.60;;
34695;SDS011;20918;51.138;17.370;2023-02-03T07:33:30;15.10;;;8.90;;
34695;SDS011;20918;51.138;17.370;2023-02-03T07:36:32;13.50;;;8.50;;
34695;SDS011;20918;51.138;17.370;2023-02-03T07:42:33;13.00;;;8.70;;
34695;SDS011;20918;51.138;17.370;2023-02-03T07:45:35;10.90;;;8.20;;
34695;SDS011;20918;51.138;17.370;2023-02-03T07:48:36;9.40;;;7.00;;
34695;SDS011;20918;51.138;17.370;2023-02-03T07:51:36;12.20;;;7.90;;
34695;SDS011;20918;51.138;17.370;2023-02-03T07:54:37;14.80;;;7.40;;
34695;SDS011;20918;51.138;17.370;2023-02-03T07:57:39;10.80;;;6.70;;
34695;SDS011;20918;51.138;17.370;2023-02-03T08:00:42;9.30;;;6.30;;
34695;SDS011;20918;51.138;17.370;2023-02-03T08:03:46;10.50;;;5.90;;
34695;SDS011;20918;51.138;17.370;2023-02-03T08:06:46;9.70;;;6.20;;
34695;SDS011;20918;51.138;17.370;2023-02-03T08:09:47;11.80;;;7.80;;
34695;SDS011;20918;51.138;17.370;2023-02-03T08:12:48;15.80;;;9.60;;
34695;SDS011;20918;51.138;17.370;2023-02-03T08:15:48;8.30;;;6.30;;
34695;SDS011;20918;51.138;17.370;2023-02-03T08:18:49;10.30;;;7.40;;
34695;SDS011;20918;51.138;17.370;2023-02-03T08:21:49;9.80;;;7.10;;
34695;SDS011;20918;51.138;17.370;2023-02-03T08:24:50;8.70;;;5.90;;
34695;SDS011;20918;51.138;17.370;2023-02-03T08:27:51;8.90;;;5.90;;
34695;SDS011;20918;51.138;17.370;2023-02-03T08:30:52;9.30;;;6.20;;
34695;SDS011;20918;51.138;17.370;2023-02-03T08:33:53;8.20;;;5.10;;
34695;SDS011;20918;51.138;17.370;2023-02-03T08:36:53;8.90;;;5.70;;
34695;SDS011;20918;51.138;17.370;2023-02-03T08:39:54;6.60;;;5.40;;
34695;SDS011;20918;51.138;17.370;2023-02-03T08:42:56;9.50;;;5.80;;
34695;SDS011;20918;51.138;17.370;2023-02-03T08:46:00;8.70;;;6.00;;
34695;SDS011;20918;51.138;17.370;2023-02-03T08:49:02;9.10;;;6.00;;
34695;SDS011;20918;51.138;17.370;2023-02-03T08:52:03;8.80;;;6.00;;
34695;SDS011;20918;51.138;17.370;2023-02-03T08:55:05;8.90;;;5.70;;
34695;SDS011;20918;51.138;17.370;2023-02-03T08:58:07;8.00;;;5.00;;
34695;SDS011;20918;51.138;17.370;2023-02-03T09:01:12;8.40;;;4.80;;
34695;SDS011;20918;51.138;17.370;2023-02-03T09:04:15;7.50;;;5.30;;
34695;SDS011;20918;51.138;17.370;2023-02-03T09:07:23;6.90;;;4.10;;
34695;SDS011;20918;51.138;17.370;2023-02-03T09:10:25;8.10;;;4.50;;
34695;SDS011;20918;51.138;17.370;2023-02-03T09:13:25;7.10;;;4.80;;
34695;SDS011;20918;51.138;17.370;2023-02-03T09:16:26;6.10;;;4.30;;
34695;SDS011;20918;51.138;17.370;2023-02-03T09:19:27;7.40;;;4.30;;
34695;SDS011;20918;51.138;17.370;2023-02-03T09:22:27;7.80;;;4.90;;
34695;SDS011;20918;51.138;17.370;2023-02-03T09:25:28;5.50;;;4.20;;
34695;SDS011;20918;51.138;17.370;2023-02-03T09:28:29;8.90;;;5.10;;
34695;SDS011;20918;51.138;17.370;2023-02-03T09:31:29;9.00;;;5.30;;
34695;SDS011;20918;51.138;17.370;2023-02-03T09:34:31;8.60;;;5.20;;
34695;SDS011;20918;51.138;17.370;2023-02-03T09:37:32;8.60;;;5.30;;
34695;SDS011;20918;51.138;17.370;2023-02-03T09:40:33;7.20;;;5.70;;
34695;SDS011;20918;51.138;17.370;2023-02-03T09:46:58;7.40;;;5.40;;
34695;SDS011;20918;51.138;17.370;2023-02-03T09:50:04;12.50;;;7.20;;
34695;SDS011;20918;51.138;17.370;2023-02-03T09:53:09;7.80;;;5.00;;
34695;SDS011;20918;51.138;17.370;2023-02-03T09:56:39;11.20;;;7.30;;
34695;SDS011;20918;51.138;17.370;2023-02-03T09:59:46;9.00;;;6.30;;
34695;SDS011;20918;51.138;17.370;2023-02-03T10:06:13;9.10;;;5.90;;
34695;SDS011;20918;51.138;17.370;2023-02-03T10:09:30;12.40;;;7.20;;
34695;SDS011;20918;51.138;17.370;2023-02-03T10:13:04;10.20;;;6.90;;
34695;SDS011;20918;51.138;17.370;2023-02-03T10:19:20;10.40;;;6.60;;
34695;SDS011;20918;51.138;17.370;2023-02-03T10:22:26;11.80;;;6.60;;
34695;SDS011;20918;51.138;17.370;2023-02-03T10:25:49;10.70;;;6.50;;
34695;SDS011;20918;51.138;17.370;2023-02-03T10:28:57;10.10;;;7.10;;
34695;SDS011;20918;51.138;17.370;2023-02-03T10:32:13;14.20;;;8.50;;
34695;SDS011;20918;51.138;17.370;2023-02-03T10:35:14;17.40;;;9.40;;
34695;SDS011;20918;51.138;17.370;2023-02-03T10:38:23;14.50;;;8.40;;
34695;SDS011;20918;51.138;17.370;2023-02-03T10:41:27;13.40;;;7.10;;
34695;SDS011;20918;51.138;17.370;2023-02-03T10:44:36;12.10;;;8.00;;
34695;SDS011;20918;51.138;17.370;2023-02-03T10:47:39;13.90;;;8.00;;
34695;SDS011;20918;51.138;17.370;2023-02-03T10:50:49;14.30;;;8.20;;
34695;SDS011;20918;51.138;17.370;2023-02-03T10:53:53;15.90;;;8.00;;
34695;SDS011;20918;51.138;17.370;2023-02-03T10:56:54;11.70;;;8.10;;
34695;SDS011;20918;51.138;17.370;2023-02-03T11:00:03;13.50;;;7.80;;
34695;SDS011;20918;51.138;17.370;2023-02-03T11:03:15;14.00;;;9.10;;
34695;SDS011;20918;51.138;17.370;2023-02-03T11:06:55;12.40;;;7.90;;
34695;SDS011;20918;51.138;17.370;2023-02-03T11:10:23;13.30;;;8.20;;
34695;SDS011;20918;51.138;17.370;2023-02-03T11:13:25;16.10;;;10.30;;
34695;SDS011;20918;51.138;17.370;2023-02-03T11:16:27;12.70;;;8.70;;
34695;SDS011;20918;51.138;17.370;2023-02-03T11:19:29;13.90;;;8.70;;
34695;SDS011;20918;51.138;17.370;2023-02-03T11:25:34;13.40;;;7.30;;
34695;SDS011;20918;51.138;17.370;2023-02-03T11:28:35;11.50;;;7.50;;
34695;SDS011;20918;51.138;17.370;2023-02-03T11:34:36;15.90;;;8.70;;
34695;SDS011;20918;51.138;17.370;2023-02-03T11:37:39;13.20;;;8.90;;
34695;SDS011;20918;51.138;17.370;2023-02-03T11:40:41;12.10;;;7.00;;
34695;SDS011;20918;51.138;17.370;2023-02-03T11:43:43;14.30;;;6.70;;
34695;SDS011;20918;51.138;17.370;2023-02-03T11:46:46;19.40;;;7.90;;
34695;SDS011;20918;51.138;17.370;2023-02-03T11:50:13;11.10;;;7.40;;
34695;SDS011;20918;51.138;17.370;2023-02-03T11:59:44;7.90;;;5.50;;
34695;SDS011;20918;51.138;17.370;2023-02-03T12:06:06;10.40;;;5.40;;
34695;SDS011;20918;51.138;17.370;2023-02-03T12:12:42;6.80;;;4.50;;
34695;SDS011;20918;51.138;17.370;2023-02-03T12:18:50;6.40;;;3.90;;
34695;SDS011;20918;51.138;17.370;2023-02-03T12:25:35;6.30;;;3.90;;
34695;SDS011;20918;51.138;17.370;2023-02-03T12:29:08;9.20;;;5.80;;
34695;SDS011;20918;51.138;17.370;2023-02-03T12:35:29;12.00;;;6.80;;
34695;SDS011;20918;51.138;17.370;2023-02-03T12:38:50;18.70;;;9.40;;
34695;SDS011;20918;51.138;17.370;2023-02-03T12:42:00;17.90;;;9.20;;
34695;SDS011;20918;51.138;17.370;2023-02-03T12:48:12;12.20;;;6.60;;
34695;SDS011;20918;51.138;17.370;2023-02-03T12:51:42;8.80;;;5.70;;
34695;SDS011;20918;51.138;17.370;2023-02-03T12:58:14;12.00;;;7.10;;
34695;SDS011;20918;51.138;17.370;2023-02-03T13:01:22;15.60;;;8.20;;
34695;SDS011;20918;51.138;17.370;2023-02-03T13:07:48;25.30;;;10.80;;
34695;SDS011;20918;51.138;17.370;2023-02-03T13:10:58;16.90;;;8.30;;
34695;SDS011;20918;51.138;17.370;2023-02-03T13:14:17;8.40;;;4.80;;
34695;SDS011;20918;51.138;17.370;2023-02-03T13:17:26;6.50;;;3.90;;
34695;SDS011;20918;51.138;17.370;2023-02-03T13:20:32;5.70;;;3.20;;
34695;SDS011;20918;51.138;17.370;2023-02-03T13:23:40;5.00;;;3.90;;
34695;SDS011;20918;51.138;17.370;2023-02-03T13:27:07;5.60;;;3.60;;
34695;SDS011;20918;51.138;17.370;2023-02-03T13:39:59;7.50;;;3.80;;
34695;SDS011;20918;51.138;17.370;2023-02-03T13:43:37;9.40;;;4.10;;
34695;SDS011;20918;51.138;17.370;2023-02-03T13:46:45;6.30;;;4.40;;
34695;SDS011;20918;51.138;17.370;2023-02-03T13:49:57;5.00;;;3.60;;
34695;SDS011;20918;51.138;17.370;2023-02-03T13:53:07;7.10;;;5.10;;
34695;SDS011;20918;51.138;17.370;2023-02-03T13:56:27;5.30;;;3.50;;
34695;SDS011;20918;51.138;17.370;2023-02-03T13:59:41;5.40;;;3.70;;
34695;SDS011;20918;51.138;17.370;2023-02-03T14:02:50;21.10;;;8.30;;
34695;SDS011;20918;51.138;17.370;2023-02-03T14:05:53;6.10;;;3.50;;
34695;SDS011;20918;51.138;17.370;2023-02-03T14:08:57;8.50;;;3.30;;
34695;SDS011;20918;51.138;17.370;2023-02-03T14:15:16;6.20;;;3.30;;
34695;SDS011;20918;51.138;17.370;2023-02-03T14:24:51;13.10;;;4.90;;
34695;SDS011;20918;51.138;17.370;2023-02-03T14:28:07;11.20;;;3.60;;
34695;SDS011;20918;51.138;17.370;2023-02-03T14:31:18;10.70;;;3.70;;
34695;SDS011;20918;51.138;17.370;2023-02-03T14:34:39;11.40;;;2.90;;
34695;SDS011;20918;51.138;17.370;2023-02-03T14:37:51;7.90;;;3.00;;
34695;SDS011;20918;51.138;17.370;2023-02-03T14:41:01;10.20;;;3.10;;
34695;SDS011;20918;51.138;17.370;2023-02-03T14:50:50;7.80;;;2.60;;
34695;SDS011;20918;51.138;17.370;2023-02-03T15:01:03;8.80;;;2.60;;
34695;SDS011;20918;51.138;17.370;2023-02-03T15:13:39;12.50;;;3.10;;
34695;SDS011;20918;51.138;17.370;2023-02-03T15:16:41;12.70;;;3.10;;
34695;SDS011;20918;51.138;17.370;2023-02-03T15:19:43;11.50;;;3.50;;
34695;SDS011;20918;51.138;17.370;2023-02-03T15:22:44;12.50;;;3.60;;
34695;SDS011;20918;51.138;17.370;2023-02-03T15:25:44;11.10;;;4.00;;
34695;SDS011;20918;51.138;17.370;2023-02-03T15:32:07;11.20;;;4.10;;
34695;SDS011;20918;51.138;17.370;2023-02-03T15:38:26;12.40;;;3.90;;
34695;SDS011;20918;51.138;17.370;2023-02-03T15:41:33;19.50;;;4.20;;
34695;SDS011;20918;51.138;17.370;2023-02-03T15:44:35;19.30;;;4.90;;
34695;SDS011;20918;51.138;17.370;2023-02-03T15:51:32;19.40;;;4.90;;
34695;SDS011;20918;51.138;17.370;2023-02-03T15:54:36;19.10;;;5.90;;
34695;SDS011;20918;51.138;17.370;2023-02-03T15:57:40;14.10;;;4.60;;
34695;SDS011;20918;51.138;17.370;2023-02-03T16:00:47;21.90;;;6.10;;
34695;SDS011;20918;51.138;17.370;2023-02-03T16:03:55;18.20;;;5.50;;
34695;SDS011;20918;51.138;17.370;2023-02-03T16:07:11;28.50;;;6.90;;
34695;SDS011;20918;51.138;17.370;2023-02-03T16:10:32;20.50;;;5.00;;
34695;SDS011;20918;51.138;17.370;2023-02-03T16:13:36;21.20;;;5.70;;
34695;SDS011;20918;51.138;17.370;2023-02-03T16:16:47;22.80;;;5.30;;
34695;SDS011;20918;51.138;17.370;2023-02-03T16:26:19;25.80;;;6.70;;
34695;SDS011;20918;51.138;17.370;2023-02-03T16:29:27;29.30;;;8.00;;
34695;SDS011;20918;51.138;17.370;2023-02-03T16:36:41;29.30;;;7.10;;
34695;SDS011;20918;51.138;17.370;2023-02-03T16:40:06;24.90;;;5.90;;
34695;SDS011;20918;51.138;17.370;2023-02-03T16:43:30;25.80;;;5.70;;
34695;SDS011;20918;51.138;17.370;2023-02-03T16:46:50;19.40;;;5.20;;
34695;SDS011;20918;51.138;17.370;2023-02-03T16:50:13;16.50;;;4.20;;
34695;SDS011;20918;51.138;17.370;2023-02-03T16:53:34;18.00;;;4.10;;
34695;SDS011;20918;51.138;17.370;2023-02-03T16:56:36;19.50;;;4.90;;
34695;SDS011;20918;51.138;17.370;2023-02-03T16:59:39;11.20;;;3.90;;
34695;SDS011;20918;51.138;17.370;2023-02-03T17:02:43;15.70;;;3.90;;
34695;SDS011;20918;51.138;17.370;2023-02-03T17:05:53;14.20;;;3.40;;
34695;SDS011;20918;51.138;17.370;2023-02-03T17:08:58;13.20;;;3.40;;
34695;SDS011;20918;51.138;17.370;2023-02-03T17:12:00;11.00;;;4.00;;
34695;SDS011;20918;51.138;17.370;2023-02-03T17:15:05;12.20;;;3.60;;
34695;SDS011;20918;51.138;17.370;2023-02-03T17:18:12;11.90;;;3.10;;
34695;SDS011;20918;51.138;17.370;2023-02-03T17:21:18;19.80;;;3.80;;
34695;SDS011;20918;51.138;17.370;2023-02-03T17:24:22;19.60;;;3.90;;
34695;SDS011;20918;51.138;17.370;2023-02-03T17:27:26;21.20;;;3.80;;
34695;SDS011;20918;51.138;17.370;2023-02-03T17:30:31;22.10;;;4.10;;
34695;SDS011;20918;51.138;17.370;2023-02-03T17:33:35;25.00;;;5.00;;
34695;SDS011;20918;51.138;17.370;2023-02-03T17:36:46;20.40;;;5.40;;
34695;SDS011;20918;51.138;17.370;2023-02-03T17:39:47;27.40;;;5.20;;
34695;SDS011;20918;51.138;17.370;2023-02-03T17:42:51;26.30;;;5.70;;
34695;SDS011;20918;51.138;17.370;2023-02-03T17:45:52;23.00;;;4.70;;
34695;SDS011;20918;51.138;17.370;2023-02-03T17:48:53;33.30;;;5.70;;
34695;SDS011;20918;51.138;17.370;2023-02-03T17:52:01;24.30;;;5.30;;
34695;SDS011;20918;51.138;17.370;2023-02-03T17:55:07;29.60;;;5.10;;
34695;SDS011;20918;51.138;17.370;2023-02-03T17:58:09;27.90;;;5.30;;
34695;SDS011;20918;51.138;17.370;2023-02-03T18:01:15;28.70;;;5.40;;
34695;SDS011;20918;51.138;17.370;2023-02-03T18:04:22;21.80;;;5.90;;
34695;SDS011;20918;51.138;17.370;2023-02-03T18:07:24;23.90;;;6.10;;
34695;SDS011;20918;51.138;17.370;2023-02-03T18:10:27;32.20;;;6.10;;
34695;SDS011;20918;51.138;17.370;2023-02-03T18:13:35;28.40;;;6.10;;
34695;SDS011;20918;51.138;17.370;2023-02-03T18:16:37;29.70;;;5.30;;
34695;SDS011;20918;51.138;17.370;2023-02-03T18:19:38;25.90;;;5.90;;
34695;SDS011;20918;51.138;17.370;2023-02-03T18:22:42;31.90;;;6.30;;
34695;SDS011;20918;51.138;17.370;2023-02-03T18:25:53;36.80;;;7.00;;
34695;SDS011;20918;51.138;17.370;2023-02-03T18:28:56;28.70;;;6.40;;
34695;SDS011;20918;51.138;17.370;2023-02-03T18:32:00;35.70;;;6.90;;
34695;SDS011;20918;51.138;17.370;2023-02-03T18:35:03;32.20;;;5.70;;
34695;SDS011;20918;51.138;17.370;2023-02-03T18:38:06;36.20;;;6.20;;
34695;SDS011;20918;51.138;17.370;2023-02-03T18:41:12;38.90;;;6.30;;
34695;SDS011;20918;51.138;17.370;2023-02-03T18:44:20;27.50;;;5.30;;
34695;SDS011;20918;51.138;17.370;2023-02-03T18:47:20;31.60;;;7.00;;
34695;SDS011;20918;51.138;17.370;2023-02-03T18:50:25;29.00;;;7.50;;
34695;SDS011;20918;51.138;17.370;2023-02-03T18:53:28;30.60;;;7.90;;
34695;SDS011;20918;51.138;17.370;2023-02-03T18:56:35;29.90;;;6.60;;
34695;SDS011;20918;51.138;17.370;2023-02-03T18:59:38;31.20;;;6.30;;
34695;SDS011;20918;51.138;17.370;2023-02-03T19:02:43;28.80;;;7.10;;
34695;SDS011;20918;51.138;17.370;2023-02-03T19:05:49;28.80;;;7.00;;
34695;SDS011;20918;51.138;17.370;2023-02-03T19:08:54;32.20;;;6.50;;
34695;SDS011;20918;51.138;17.370;2023-02-03T19:11:56;26.30;;;5.20;;
34695;SDS011;20918;51.138;17.370;2023-02-03T19:15:00;27.60;;;5.30;;
34695;SDS011;20918;51.138;17.370;2023-02-03T19:18:04;22.10;;;5.10;;
34695;SDS011;20918;51.138;17.370;2023-02-03T19:21:17;26.90;;;6.30;;
34695;SDS011;20918;51.138;17.370;2023-02-03T19:24:20;25.10;;;5.90;;
34695;SDS011;20918;51.138;17.370;2023-02-03T19:27:26;29.70;;;7.10;;
34695;SDS011;20918;51.138;17.370;2023-02-03T19:31:07;28.70;;;7.10;;
34695;SDS011;20918;51.138;17.370;2023-02-03T19:34:37;26.00;;;5.80;;
34695;SDS011;20918;51.138;17.370;2023-02-03T19:37:42;25.60;;;7.00;;
34695;SDS011;20918;51.138;17.370;2023-02-03T19:40:52;26.00;;;5.20;;
34695;SDS011;20918;51.138;17.370;2023-02-03T19:43:55;26.80;;;5.30;;
34695;SDS011;20918;51.138;17.370;2023-02-03T19:47:16;22.70;;;5.70;;
34695;SDS011;20918;51.138;17.370;2023-02-03T19:51:06;25.70;;;4.90;;
34695;SDS011;20918;51.138;17.370;2023-02-03T19:54:31;23.40;;;5.50;;
34695;SDS011;20918;51.138;17.370;2023-02-03T19:57:34;20.90;;;5.30;;
34695;SDS011;20918;51.138;17.370;2023-02-03T20:00:52;28.80;;;5.20;;
34695;SDS011;20918;51.138;17.370;2023-02-03T20:04:01;28.40;;;6.30;;
34695;SDS011;20918;51.138;17.370;2023-02-03T20:07:10;24.60;;;5.80;;
34695;SDS011;20918;51.138;17.370;2023-02-03T20:10:13;30.60;;;6.40;;
34695;SDS011;20918;51.138;17.370;2023-02-03T20:13:18;26.90;;;6.70;;
34695;SDS011;20918;51.138;17.370;2023-02-03T20:16:29;30.40;;;5.70;;
34695;SDS011;20918;51.138;17.370;2023-02-03T20:19:36;28.80;;;5.80;;
34695;SDS011;20918;51.138;17.370;2023-02-03T20:22:39;23.70;;;6.30;;
34695;SDS011;20918;51.138;17.370;2023-02-03T20:25:40;23.50;;;6.40;;
34695;SDS011;20918;51.138;17.370;2023-02-03T20:28:47;24.70;;;6.00;;
34695;SDS011;20918;51.138;17.370;2023-02-03T20:32:08;23.00;;;5.60;;
34695;SDS011;20918;51.138;17.370;2023-02-03T20:35:11;23.60;;;5.50;;
34695;SDS011;20918;51.138;17.370;2023-02-03T20:38:20;20.30;;;6.40;;
34695;SDS011;20918;51.138;17.370;2023-02-03T20:41:24;29.10;;;6.40;;
34695;SDS011;20918;51.138;17.370;2023-02-03T20:44:31;25.60;;;5.80;;
34695;SDS011;20918;51.138;17.370;2023-02-03T20:47:34;24.20;;;6.80;;
34695;SDS011;20918;51.138;17.370;2023-02-03T20:50:36;28.00;;;5.60;;
34695;SDS011;20918;51.138;17.370;2023-02-03T20:53:38;29.60;;;6.30;;